• Join FlightAware (Why Join?)
  • Login
  • US Flag 
12:42AM EDT


 

Airport Tracker/Info


-or-


 

Live Flight TrackerFlight Track Log ✈ AWE1405 ✈ 29-Jun-2013 ✈ KPHL - KLAX

Flight Track Log - Related Links

Times and Time Zones

All times are in EDT time to prevent confusion due to time zone crossing. See the AWE1405 flight status page for this flight to view local times or setup timezone preferences in your user account.

Time Position Orientation Groundspeed Altitude Reporting Facility
EDT Latitude Longitude Course Direction KTS MPH feet Rate Location/Type
02:18PM 39.8579 -75.2910 257° West 174 200 1,700  Level FlightAware ADS-B
02:18PM 39.8563 -75.3006 258° West 174 200 2,000 1,200 Climbing FlightAware ADS-B
02:18PM 39.8537 -75.3169 258° West 179 206 2,200 780 Climbing FlightAware ADS-B
02:18PM 39.8524 -75.3252 258° West 186 214 2,300 480 Climbing FlightAware ADS-B
02:19PM 39.8499 -75.3423 259° West 199 229 2,400 540 Climbing FlightAware ADS-B
02:19PM 39.8465 -75.3647 259° West 217 250 2,600 300 Climbing FlightAware ADS-B
02:19PM 39.8430 -75.3862 258° West 241 277 2,600 540 Level FlightAware ADS-B
02:19PM 39.8393 -75.4089 258° West 258 297 2,900 1,500 Climbing FlightAware ADS-B
02:20PM 39.8352 -75.4336 258° West 264 304 3,400 2,100 Climbing FlightAware ADS-B
02:20PM 39.8343 -75.4405 260° West 265 305 3,600 2,220 Climbing FlightAware ADS-B
02:20PM 39.8338 -75.4463 264° West 266 306 3,700 1,980 Climbing FlightAware ADS-B
02:20PM 39.8337 -75.4586 269° West 265 305 4,000 2,340 Climbing FlightAware ADS-B
02:20PM 39.8356 -75.4834 276° West 269 310 4,600 2,400 Climbing FlightAware ADS-B
02:20PM 39.8383 -75.5071 278° West 269 310 5,200 2,460 Climbing FlightAware ADS-B
02:21PM 39.8411 -75.5290 279° West 265 305 5,800 2,520 Climbing FlightAware ADS-B
02:21PM 39.8444 -75.5518 281° West 266 306 6,400 2,160 Climbing FlightAware ADS-B
02:21PM 39.8470 -75.5679 282° West 267 307 6,700 1,860 Climbing FlightAware ADS-B
02:21PM 39.8499 -75.5861 282° West 267 307 7,100 2,040 Climbing FlightAware ADS-B
02:22PM 39.8531 -75.6104 280° West 270 311 7,600 2,160 Climbing FlightAware ADS-B
02:22PM 39.8554 -75.6348 277° West 268 308 8,200 2,460 Climbing FlightAware ADS-B
02:22PM 39.8570 -75.6588 275° West 265 305 8,900 2,460 Climbing FlightAware ADS-B
02:22PM 39.8586 -75.6833 275° West 264 304 9,500 1,920 Climbing FlightAware ADS-B
02:23PM 39.8605 -75.7084 276° West 269 310 9,900 1,560 Climbing FlightAware ADS-B
02:23PM 39.8655 -75.7581 277° West 278 320 10,700 1,200 Climbing FlightAware ADS-B
02:24PM 39.8711 -75.8055 279° West 299 344 11,100 720 Climbing FlightAware ADS-B
02:24PM 39.8766 -75.8613 277° West 322 371 11,400 660 Climbing FlightAware ADS-B
02:25PM 39.8823 -75.9230 277° West 345 397 11,800 960 Climbing FlightAware ADS-B
02:25PM 39.8885 -75.9880 277° West 361 415 12,400 1,200 Climbing FlightAware ADS-B
02:26PM 39.8945 -76.0505 277° West 367 422 13,000 1,500 Climbing FlightAware ADS-B
02:26PM 39.8949 -76.0675 272° West 366 421 13,300 1,740 Climbing FlightAware ADS-B
02:26PM 39.8930 -76.0874 263° West 365 420 13,500 1,260 Climbing FlightAware ADS-B
02:26PM 39.8908 -76.0973 254° West 364 419 13,600 1,500 Climbing FlightAware ADS-B
02:26PM 39.8731 -76.1620 250° West 370 426 14,400 1,440 Climbing FlightAware ADS-B
02:27PM 39.8531 -76.2336 250° West 373 429 15,200 1,260 Climbing FlightAware ADS-B
02:28PM 39.8340 -76.3017 250° West 382 440 15,800 1,380 Climbing FlightAware ADS-B
02:28PM 39.8156 -76.3672 250° West 379 436 16,700 1,440 Climbing FlightAware ADS-B
02:29PM 39.7973 -76.4318 250° West 382 440 17,300 1,200 Climbing FlightAware ADS-B
02:29PM 39.7787 -76.4973 250° West 387 445 17,900 1,200 Climbing FlightAware ADS-B
02:30PM 39.7600 -76.5634 250° West 389 448 18,500 1,200 Climbing FlightAware ADS-B
02:30PM 39.7405 -76.6320 250° West 390 449 19,200 1,320 Climbing FlightAware ADS-B
02:31PM 39.7211 -76.7000 250° West 386 444 19,900 1,140 Climbing FlightAware ADS-B
02:31PM 39.7019 -76.7670 250° West 391 450 20,400 1,020 Climbing FlightAware ADS-B
02:32PM 39.6819 -76.8368 250° West 393 452 21,000 1,140 Climbing FlightAware ADS-B
02:32PM 39.6623 -76.9047 249° West 390 449 21,600 1,140 Climbing FlightAware ADS-B
02:33PM 39.6432 -76.9707 249° West 392 451 22,200 1,080 Climbing FlightAware ADS-B
02:33PM 39.6236 -77.0388 250° West 393 452 22,700 720 Climbing FlightAware ADS-B
02:34PM 39.6037 -77.1073 249° West 397 457 23,000 660 Climbing FlightAware ADS-B
02:34PM 39.5839 -77.1755 249° West 402 463 23,400 840 Climbing FlightAware ADS-B
02:35PM 39.5621 -77.2501 249° West 402 463 23,900 780 Climbing FlightAware ADS-B
02:35PM 39.5405 -77.3240 249° West 406 467 24,300 660 Climbing FlightAware ADS-B
02:36PM 39.5203 -77.3932 249° West 410 472 24,600 660 Climbing FlightAware ADS-B
02:36PM 39.4988 -77.4666 249° West 413 475 25,000 660 Climbing FlightAware ADS-B
02:37PM 39.4781 -77.5368 249° West 416 479 25,300 540 Climbing FlightAware ADS-B
02:37PM 39.4567 -77.6095 249° West 419 482 25,600 660 Climbing FlightAware ADS-B
02:38PM 39.4357 -77.6803 249° West 423 487 26,000 840 Climbing FlightAware ADS-B
02:38PM 39.4129 -77.7573 249° West 421 484 26,500 1,020 Climbing FlightAware ADS-B
02:39PM 39.3889 -77.8369 249° West 419 482 27,200 1,260 Climbing FlightAware ADS-B
02:39PM 39.3621 -77.9079 244° Southwest 410 472 27,900 1,260 Climbing FlightAware ADS-B
02:40PM 39.3341 -77.9784 243° Southwest 404 465 28,600 1,200 Climbing FlightAware ADS-B
02:41PM 39.2770 -78.1220 243° Southwest 394 453 30,000 720 Climbing FlightAware
02:42PM 39.2430 -78.2080 243° Southwest 392 451 30,000  Level FlightAware
02:43PM 39.1930 -78.3300 242° Southwest 394 453 30,000  Level FlightAware
02:44PM 39.1470 -78.4460 243° Southwest 392 451 30,000  Level FlightAware
02:44PM 39.1250 -78.5000 242° Southwest 390 449 30,000  Level FlightAware
02:48PM 38.9360 -78.9640 242° Southwest 392 451 30,000  Level FlightAware
02:49PM 38.8860 -79.0860 242° Southwest 395 455 30,000  Level FlightAware
02:51PM 38.8190 -79.3150 249° West 399 459 30,000  Level FlightAware
02:52PM 38.7880 -79.4870 257° West 399 459 30,000  Level FlightAware
02:53PM 38.7640 -79.6190 257° West 400 460 30,000  Level FlightAware
02:53PM 38.7490 -79.7020 257° West 400 460 30,000 60 Level FlightAware
02:54PM 38.7280 -79.8170 257° West 398 458 30,100  Climbing FlightAware
02:56PM 38.6500 -80.0410 246° West 390 449 30,000 -60 Descending FlightAware
02:57PM 38.6210 -80.1030 239° Southwest 390 449 30,000  Level FlightAware
02:58PM 38.5840 -80.1820 239° Southwest 390 449 30,000  Level FlightAware
02:58PM 38.5560 -80.2430 240° Southwest 390 449 30,000 60 Level FlightAware
02:59PM 38.5870 -80.4400 281° West 400 460 30,100  Climbing FlightAware
03:01PM 38.5690 -80.7720 266° West 400 460 30,000 -60 Descending FlightAware
03:02PM 38.5700 -80.8670 271° West 401 461 30,000 60 Level FlightAware
03:03PM 38.5710 -80.9560 271° West 403 464 30,100 480 Climbing FlightAware
03:03PM 38.5730 -81.0710 271° West 405 466 30,700 660 Climbing FlightAware
03:04PM 38.5740 -81.1670 271° West 408 470 31,100 840 Climbing FlightAware
03:05PM 38.5760 -81.2910 271° West 404 465 32,000 480 Climbing FlightAware
03:06PM 38.5770 -81.4050 271° West 394 453 32,000  Level FlightAware
03:06PM 38.5780 -81.5040 271° West 395 455 32,000  Level FlightAware
03:07PM 38.5790 -81.5930 271° West 401 461 32,000 60 Level FlightAware
03:08PM 38.5800 -81.6980 271° West 405 466 32,100  Climbing FlightAware
03:09PM 38.5810 -81.7980 271° West 405 466 32,000 -120 Descending FlightAware
03:09PM 38.5820 -81.8880 271° West 396 456 32,000  Level FlightAware
03:10PM 38.5830 -82.0400 271° West 401 461 32,000  Level FlightAware
03:12PM 38.5840 -82.2610 270° West 407 468 32,000  Level FlightAware
03:13PM 38.5840 -82.3650 270° West 407 468 32,100  Climbing FlightAware
03:13PM 38.5840 -82.4540 270° West 407 468 32,000 -120 Descending FlightAware
03:14PM 38.5840 -82.5620 270° West 404 465 32,000  Level FlightAware
03:15PM 38.5840 -82.7250 270° West 398 458 32,000  Level FlightAware
03:16PM 38.5840 -82.8840 270° West 394 453 32,000  Level FlightAware
03:17PM 38.5842 -82.9336 270° West 394 453 32,000  Level FlightAware ADS-B
03:17PM 38.5840 -83.0200 270° West 394 453 32,000  Level FlightAware
03:18PM 38.5840 -83.1140 270° West 395 455 32,000  Level FlightAware
03:19PM 38.5750 -83.2120 263° West 395 455 32,000  Level FlightAware
03:19PM 38.5580 -83.3080 257° West 397 457 32,000  Level FlightAware
03:20PM 38.5420 -83.3950 257° West 398 458 32,000  Level FlightAware
03:21PM 38.5200 -83.5270 258° West 398 458 32,000  Level FlightAware
03:22PM 38.4920 -83.6950 258° West 398 458 32,000  Level FlightAware
03:23PM 38.4720 -83.8210 259° West 396 456 32,000  Level FlightAware
03:24PM 38.4540 -83.9280 258° West 396 456 32,000  Level FlightAware
03:24PM 38.4410 -84.0060 258° West 396 456 32,000  Level FlightAware
03:25PM 38.4200 -84.1320 258° West 396 456 32,000  Level FlightAware
03:26PM 38.4040 -84.2260 258° West 396 456 32,000  Level FlightAware
03:27PM 38.3930 -84.2940 258° West 396 456 32,000  Level FlightAware
03:28PM 38.3770 -84.3890 258° West 396 456 32,000  Level FlightAware
03:28PM 38.3660 -84.4590 259° West 396 456 32,000  Level FlightAware
03:29PM 38.3500 -84.5500 257° West 396 456 32,000  Level FlightAware
03:31PM 38.3010 -84.9050 260° West 391 450 32,100  Climbing FlightAware
03:32PM 38.2860 -85.0030 259° West 392 451 32,000 -120 Descending FlightAware
03:32PM 38.2730 -85.0860 259° West 391 450 32,000  Level FlightAware
03:33PM 38.2570 -85.1940 259° West 389 448 32,000  Level FlightAware
03:34PM 38.2430 -85.2880 259° West 389 448 32,000  Level FlightAware
03:34PM 38.2300 -85.3780 260° West 388 447 32,000  Level FlightAware
03:35PM 38.2180 -85.4670 260° West 388 447 32,000  Level FlightAware
03:36PM 38.2150 -85.5580 268° West 390 449 32,000  Level FlightAware
03:37PM 38.2140 -85.6690 269° West 388 447 32,000  Level FlightAware
03:37PM 38.2120 -85.7590 268° West 388 447 32,000  Level FlightAware
03:38PM 38.2110 -85.8610 269° West 387 445 32,000  Level FlightAware
03:39PM 38.2090 -85.9530 268° West 386 444 32,000  Level FlightAware
03:39PM 38.2080 -86.0440 269° West 385 443 32,000  Level FlightAware
03:40PM 38.2050 -86.1680 268° West 386 444 32,000  Level FlightAware
03:41PM 38.2040 -86.2610 269° West 386 444 32,000  Level FlightAware
03:42PM 38.2020 -86.3570 269° West 386 444 32,000  Level FlightAware
03:42PM 38.2000 -86.4450 268° West 386 444 32,000  Level FlightAware
03:43PM 38.1980 -86.5500 269° West 386 444 32,000  Level FlightAware
03:44PM 38.1960 -86.6520 269° West 384 442 32,000  Level FlightAware
03:45PM 38.1930 -86.7650 268° West 384 442 32,000  Level FlightAware
03:45PM 38.1900 -86.8690 268° West 384 442 32,000  Level FlightAware
03:46PM 38.1880 -86.9690 269° West 385 443 32,000  Level FlightAware
03:47PM 38.1860 -87.0580 268° West 386 444 32,000  Level FlightAware
03:48PM 38.1830 -87.1590 268° West 388 447 32,000  Level FlightAware
03:48PM 38.1810 -87.2550 269° West 388 447 32,000  Level FlightAware
03:49PM 38.1780 -87.3370 267° West 388 447 32,000  Level FlightAware
03:50PM 38.1760 -87.4310 268° West 389 448 32,000  Level FlightAware
03:50PM 38.1730 -87.5380 268° West 390 449 32,000  Level FlightAware
03:51PM 38.1700 -87.6320 268° West 389 448 32,000  Level FlightAware
03:52PM 38.1670 -87.7330 268° West 390 449 32,000  Level FlightAware
03:52PM 38.1640 -87.8160 267° West 390 449 32,000  Level FlightAware
03:53PM 38.1610 -87.9270 268° West 389 448 32,000  Level FlightAware
03:54PM 38.1570 -88.0210 267° West 389 448 32,000  Level FlightAware
03:55PM 38.1530 -88.1360 268° West 390 449 32,000  Level FlightAware
03:55PM 38.1500 -88.2330 268° West 389 448 32,000  Level FlightAware
03:56PM 38.1460 -88.3430 267° West 389 448 32,000  Level FlightAware
03:57PM 38.1430 -88.4300 268° West 388 447 32,000  Level FlightAware
03:58PM 38.1390 -88.5250 267° West 386 444 32,000  Level FlightAware
03:58PM 38.1350 -88.6200 267° West 387 445 32,000  Level FlightAware
03:59PM 38.1320 -88.7160 268° West 388 447 32,000  Level FlightAware
04:00PM 38.1280 -88.8070 267° West 389 448 32,000  Level FlightAware
04:00PM 38.1230 -88.9170 267° West 392 451 32,000  Level FlightAware
04:01PM 38.1200 -88.9950 267° West 395 455 32,000  Level FlightAware
04:02PM 38.1160 -89.1030 267° West 398 458 32,000  Level FlightAware
04:02PM 38.1110 -89.2050 266° West 401 461 32,000  Level FlightAware
04:04PM 38.1040 -89.3590 267° West 403 464 32,000  Level FlightAware
04:04PM 38.0990 -89.4710 267° West 404 465 32,000  Level FlightAware
04:05PM 38.0950 -89.5580 267° West 405 466 32,000  Level FlightAware
04:06PM 38.0900 -89.6650 267° West 406 467 32,000  Level FlightAware
04:06PM 38.0850 -89.7720 267° West 409 471 32,000  Level FlightAware
04:07PM 38.0810 -89.8560 267° West 409 471 32,000  Level FlightAware
04:08PM 38.0760 -89.9590 267° West 409 471 32,000  Level FlightAware
04:08PM 38.0710 -90.0410 266° West 409 471 32,000  Level FlightAware
04:09PM 38.0650 -90.1590 266° West 410 472 32,000  Level FlightAware
04:10PM 38.0580 -90.2820 266° West 410 472 32,000  Level FlightAware
04:11PM 38.0530 -90.3840 266° West 410 472 32,000  Level FlightAware
04:12PM 38.0450 -90.5440 266° West 412 474 32,000  Level FlightAware
04:13PM 38.0370 -90.6550 265° West 412 474 32,000  Level FlightAware
04:13PM 38.0320 -90.7290 265° West 412 474 32,000  Level FlightAware
04:14PM 38.0250 -90.8270 265° West 412 474 32,000  Level FlightAware
04:16PM 38.0130 -91.0910 267° West 416 479 32,000  Level FlightAware
04:17PM 38.0040 -91.2370 266° West 417 480 32,100  Climbing FlightAware
04:18PM 37.9950 -91.3740 265° West 419 482 32,000 -120 Descending FlightAware
04:18PM 37.9900 -91.4530 265° West 419 482 32,000  Level FlightAware
04:19PM 37.9830 -91.5530 265° West 419 482 32,000  Level FlightAware
04:22PM 37.9530 -92.0260 266° West 409 471 32,000  Level FlightAware
04:23PM 37.9460 -92.1300 265° West 404 465 32,000  Level FlightAware
04:23PM 37.9400 -92.2160 265° West 404 465 32,000  Level FlightAware
04:24PM 37.9320 -92.3290 265° West 404 465 32,000  Level FlightAware
04:25PM 37.9230 -92.4570 265° West 404 465 32,000  Level FlightAware
04:26PM 37.9110 -92.6220 265° West 403 464 32,000  Level FlightAware
04:27PM 37.9040 -92.7150 265° West 402 463 32,000  Level FlightAware
04:28PM 37.8960 -92.8230 265° West 399 459 32,000  Level FlightAware
04:29PM 37.8860 -92.9580 265° West 396 456 32,000  Level FlightAware
04:30PM 37.8680 -93.1900 264° West 394 453 32,000  Level FlightAware
04:31PM 37.8590 -93.3010 264° West 394 453 32,000  Level FlightAware
04:32PM 37.8531 -93.3969 264° West 393 452 32,000  Level Kansas City Center
04:37PM 37.7900 -94.1210 264° West 397 457 32,000  Level FlightAware
04:38PM 37.7820 -94.2130 264° West 397 457 32,000  Level FlightAware
04:39PM 37.7740 -94.2890 262° West 397 457 32,000  Level FlightAware
04:39PM 37.7640 -94.4300 265° West 399 459 32,000  Level FlightAware
04:41PM 37.7430 -94.6500 263° West 399 459 32,000  Level FlightAware
04:44PM 37.7120 -94.9860 263° West 396 456 32,000  Level FlightAware
04:45PM 37.6889 -95.2467 263° West 401 461 32,000  Level Kansas City Center
04:46PM 37.6753 -95.3881 263° West 404 465 32,000  Level Kansas City Center
04:52PM 37.5910 -96.2230 263° West 415 478 32,000  Level FlightAware
04:53PM 37.5790 -96.3350 262° West 416 479 32,000  Level FlightAware
04:54PM 37.5680 -96.4480 263° West 421 484 32,000  Level FlightAware
04:57PM 37.5090 -96.9880 262° West 428 493 32,000  Level FlightAware
04:58PM 37.4920 -97.1400 262° West 429 494 32,000  Level FlightAware
04:59PM 37.4800 -97.2390 261° West 428 493 32,000 480 Level FlightAware
05:00PM 37.4540 -97.4690 262° West 428 493 33,100 780 Climbing FlightAware
05:01PM 37.4420 -97.5710 262° West 426 490 33,800 600 Climbing FlightAware
05:02PM 37.4290 -97.6860 262° West 429 494 34,000 120 Climbing FlightAware
05:03PM 37.4160 -97.7950 261° West 428 493 34,000  Level FlightAware
05:03PM 37.4040 -97.8970 262° West 427 491 34,000  Level FlightAware
05:04PM 37.3920 -97.9970 261° West 425 489 34,000  Level FlightAware
05:05PM 37.3820 -98.0850 262° West 425 489 34,000  Level FlightAware
05:06PM 37.3550 -98.3040 261° West 425 489 34,000  Level FlightAware
05:07PM 37.3430 -98.4010 261° West 427 491 34,000  Level FlightAware
05:07PM 37.3300 -98.5030 261° West 429 494 34,000  Level FlightAware
05:08PM 37.3170 -98.6130 262° West 431 496 34,000  Level FlightAware
05:09PM 37.3030 -98.7220 261° West 433 498 34,000  Level FlightAware
05:11PM 37.2580 -99.0690 261° West 431 496 34,100  Climbing FlightAware
05:12PM 37.2390 -99.2050 260° West 431 496 34,100  Level FlightAware
05:13PM 37.2290 -99.2810 261° West 431 496 34,100  Level FlightAware
05:14PM 37.2170 -99.3620 259° West 431 496 34,100  Level FlightAware
05:14PM 37.2030 -99.4630 260° West 431 496 34,100  Level FlightAware
05:15PM 37.1920 -99.5450 260° West 431 496 34,100  Level FlightAware
05:16PM 37.1700 -99.6950 260° West 431 496 34,100  Level FlightAware
05:17PM 37.1600 -99.7690 260° West 431 496 34,100  Level FlightAware
05:18PM 37.1450 -99.8730 260° West 431 496 34,100  Level FlightAware
05:18PM 37.1350 -99.9490 261° West 431 496 34,100  Level FlightAware
05:19PM 37.1210 -100.0470 260° West 431 496 34,100  Level FlightAware
05:20PM 37.1060 -100.1500 260° West 431 496 34,100  Level FlightAware
05:21PM 37.0930 -100.2480 261° West 431 496 34,100 -120 Level FlightAware
05:21PM 37.0586 -100.5350 261° West 440 506 34,000 -120 Descending Kansas City Center
05:22PM 37.0339 -100.7033 260° West 439 505 34,000  Level Kansas City Center
05:23PM 37.0133 -100.8483 260° West 439 505 34,000  Level Kansas City Center
05:24PM 36.9928 -100.9919 260° West 438 504 34,000  Level Kansas City Center
05:25PM 36.9678 -101.1619 260° West 441 507 34,000  Level Kansas City Center
05:26PM 36.9461 -101.3078 260° West 445 512 34,000  Level Kansas City Center
05:27PM 36.9211 -101.4761 260° West 442 509 34,000  Level Kansas City Center
05:28PM 36.8994 -101.6217 259° West 443 510 34,000  Level Kansas City Center
05:29PM 36.8772 -101.7658 259° West 442 509 34,000  Level Kansas City Center
05:30PM 36.8733 -101.9339 268° West 436 502 34,000  Level Kansas City Center
05:31PM 36.8831 -102.0753 275° West 429 494 34,000  Level Kansas City Center
05:32PM 36.8964 -102.2431 276° West 433 498 34,000  Level Kansas City Center
05:33PM 36.9067 -102.3878 275° West 435 501 34,000  Level Kansas City Center
05:35PM 36.9186 -102.5564 275° West 436 502 34,100  Climbing Kansas City Center
05:36PM 36.9306 -102.7017 276° West 437 503 34,000 -60 Descending Kansas City Center
05:37PM 36.9411 -102.8447 275° West 434 499 34,000  Level Kansas City Center
05:38PM 36.9561 -103.0344 276° West 431 496 34,000  Level Albuquerque Center
05:44PM 37.0472 -103.8800 276° West 429 494 34,000  Level FlightAware ADS-B
05:44PM 37.0547 -103.9780 276° West 433 498 34,000  Level FlightAware ADS-B
05:45PM 37.0523 -104.0590 268° West 439 505 34,000  Level FlightAware ADS-B
05:45PM 37.0475 -104.1420 266° West 444 511 34,000  Level FlightAware ADS-B
05:46PM 37.0411 -104.2622 266° West 441 507 34,000 60 Level Denver Center
05:47PM 37.0383 -104.3364 267° West 444 511 34,100 60 Climbing Albuquerque Center
05:47PM 37.0358 -104.4125 268° West 447 514 34,100 -120 Level Denver Center
05:48PM 37.0319 -104.5628 268° West 450 518 34,000 -120 Descending Denver Center
05:49PM 37.0308 -104.6617 269° West 448 516 34,000  Level Albuquerque Center
05:49PM 37.0281 -104.7386 267° West 451 519 34,000  Level Denver Center
05:50PM 36.9758 -104.8622 242° Southwest 463 533 34,000  Level Denver Center
05:51PM 36.8703 -105.0039 227° Southwest 464 534 34,000  Level Denver Center
05:52PM 36.7831 -105.1211 227° Southwest 463 533 34,000  Level Denver Center
05:53PM 36.6922 -105.2486 228° Southwest 455 524 34,000  Level Denver Center
05:59PM 36.1130 -105.9090 228° Southwest 462 532 34,000  Level FlightAware
06:04PM 35.6700 -106.3540 219° Southwest 460 529 34,000  Level FlightAware
06:05PM 35.5970 -106.4260 219° Southwest 461 531 34,000  Level FlightAware
06:05PM 35.5310 -106.4910 219° Southwest 465 535 34,000  Level FlightAware
06:08PM 35.2740 -106.8120 226° Southwest 463 533 34,000  Level FlightAware
06:09PM 35.2620 -106.9220 262° West 458 527 34,000  Level FlightAware
06:09PM 35.2540 -107.0300 265° West 459 528 34,000  Level FlightAware
06:10PM 35.2460 -107.1290 264° West 459 528 34,000  Level FlightAware
06:11PM 35.2370 -107.2410 264° West 460 529 34,000  Level FlightAware
06:12PM 35.2270 -107.3620 264° West 459 528 34,000  Level FlightAware
06:12PM 35.2190 -107.4630 264° West 462 532 34,000 60 Level FlightAware
06:13PM 35.2100 -107.5730 264° West 461 531 34,100 60 Climbing FlightAware
06:14PM 35.2020 -107.6740 264° West 462 532 34,100 -120 Level FlightAware
06:14PM 35.1920 -107.7880 264° West 460 529 34,000 -60 Descending FlightAware
06:15PM 35.1803 -107.9319 264° West 459 528 34,000  Level Albuquerque Center
06:16PM 35.1669 -108.0819 264° West 460 529 34,000  Level Albuquerque Center
06:17PM 35.1542 -108.2331 264° West 464 534 34,000  Level Albuquerque Center
06:18PM 35.1389 -108.4053 264° West 459 528 34,000  Level Albuquerque Center
06:19PM 35.1247 -108.5550 263° West 459 528 34,000  Level Albuquerque Center
06:20PM 35.1092 -108.7272 264° West 457 526 34,000  Level Albuquerque Center
06:21PM 35.0964 -108.8764 264° West 459 528 34,000  Level Albuquerque Center
06:22PM 35.0819 -109.0250 263° West 459 528 34,000  Level Albuquerque Center
06:23PM 35.0661 -109.1986 264° West 458 527 34,000  Level Albuquerque Center
06:25PM 35.0517 -109.3469 263° West 459 528 34,000  Level Albuquerque Center
06:31PM 35.0460 -110.2210 263° West 441 507 34,100  Climbing FlightAware
06:31PM 35.1290 -110.3060 320° Northwest 437 503 34,000 -120 Descending FlightAware
06:32PM 35.1960 -110.3760 320° Northwest 432 497 34,000  Level FlightAware
06:33PM 35.2370 -110.4650 299° West 437 503 34,000  Level FlightAware
06:34PM 35.2290 -110.6150 266° West 446 513 34,000 60 Level FlightAware
06:34PM 35.2110 -110.7070 257° West 446 513 34,100 60 Climbing FlightAware
06:35PM 35.1940 -110.7950 257° West 445 512 34,100 -120 Level FlightAware
06:36PM 35.1650 -110.9470 257° West 443 510 34,000 -60 Descending FlightAware
06:38PM 35.1170 -111.1900 256° West 445 512 34,000  Level FlightAware
06:38PM 35.0960 -111.2960 256° West 446 513 34,000  Level FlightAware
06:39PM 35.0770 -111.3920 256° West 451 519 34,000  Level FlightAware
06:40PM 35.0500 -111.5260 256° West 453 521 34,000  Level FlightAware
06:41PM 35.0230 -111.6570 256° West 458 527 34,000  Level FlightAware
06:43PM 34.9590 -111.9720 256° West 458 527 34,000  Level FlightAware
06:49PM 34.7850 -112.8050 256° West 451 519 34,000  Level FlightAware
06:50PM 34.7560 -112.9380 255° West 453 521 34,000  Level FlightAware
06:50PM 34.7260 -113.0800 256° West 454 522 34,000  Level FlightAware
06:52PM 34.6750 -113.3130 255° West 452 520 34,000  Level FlightAware
06:53PM 34.6540 -113.4100 255° West 450 518 34,000  Level FlightAware
06:53PM 34.6350 -113.4990 255° West 451 519 34,000  Level FlightAware
06:54PM 34.6080 -113.6200 255° West 453 521 34,000  Level FlightAware
06:55PM 34.5870 -113.7150 255° West 453 521 34,000  Level FlightAware
06:55PM 34.5630 -113.8220 255° West 455 524 34,000  Level FlightAware
06:56PM 34.5410 -113.9200 255° West 458 527 34,000  Level FlightAware
06:57PM 34.5190 -114.0200 255° West 459 528 34,000  Level FlightAware
06:57PM 34.4930 -114.1340 255° West 461 531 34,000  Level FlightAware
06:58PM 34.4690 -114.2430 255° West 460 529 34,000  Level FlightAware
06:59PM 34.4450 -114.3490 255° West 461 531 34,000  Level FlightAware
07:02PM 34.3560 -114.7320 254° West 461 531 34,000  Level FlightAware
07:02PM 34.3360 -114.8170 254° West 461 531 34,000  Level FlightAware
07:03PM 34.3180 -114.8930 254° West 461 531 34,000  Level FlightAware
07:04PM 34.2940 -114.9940 254° West 461 531 34,000  Level FlightAware
07:06PM 34.2110 -115.3550 255° West 462 532 34,000  Level FlightAware
07:06PM 34.1850 -115.4670 254° West 461 531 34,000  Level FlightAware
07:07PM 34.1600 -115.5690 254° West 460 529 34,000  Level FlightAware
07:08PM 34.1340 -115.6790 254° West 460 529 34,000  Level FlightAware
07:09PM 34.1110 -115.7830 255° West 461 531 34,000 -120 Level FlightAware
07:09PM 34.0950 -115.8840 259° West 463 533 33,900 -840 Descending FlightAware
07:11PM 34.0630 -116.1000 260° West 465 535 32,300 -1,620 Descending FlightAware
07:12PM 34.0430 -116.2360 260° West 468 539 29,800 -2,580 Descending FlightAware
07:12PM 34.0200 -116.3870 260° West 455 524 27,500 -2,700 Descending FlightAware
07:13PM 34.0040 -116.4970 260° West 446 513 25,900 -2,040 Descending FlightAware
07:14PM 33.9970 -116.5840 264° West 429 494 24,800 -2,220 Descending FlightAware
07:15PM 33.9890 -116.6880 265° West 424 488 23,000 -2,280 Descending FlightAware
07:15PM 33.9810 -116.7840 264° West 421 484 21,600 -2,100 Descending FlightAware
07:16PM 33.9730 -116.8830 264° West 409 471 20,100 -2,100 Descending FlightAware
07:17PM 33.9650 -116.9880 265° West 404 465 18,500 -1,860 Descending FlightAware
07:17PM 33.9570 -117.0770 264° West 390 449 17,400 -1,080 Descending FlightAware
07:18PM 33.9500 -117.1600 264° West 376 433 17,100 -240 Descending FlightAware
07:19PM 33.9420 -117.2530 264° West 378 435 17,100 -180 Level FlightAware
07:19PM 33.9360 -117.3280 265° West 360 414 16,900 -900 Descending FlightAware
07:20PM 33.9440 -117.4060 277° West 334 384 16,000 -1,740 Descending FlightAware
07:21PM 33.9700 -117.4780 294° West 321 369 14,400 -2,160 Descending FlightAware
07:22PM 33.9960 -117.5530 293° West 304 350 12,800 -2,220 Descending FlightAware
07:22PM 34.0190 -117.6180 293° West 295 339 11,200 -1,980 Descending FlightAware
07:23PM 34.0250 -117.6630 279° West 291 335 10,500 -1,380 Descending FlightAware
07:23PM 34.0210 -117.7040 263° West 294 338 10,000 -1,260 Descending FlightAware
07:24PM 34.0170 -117.7510 264° West 293 337 9,400 -1,440 Descending FlightAware
07:24PM 34.0130 -117.7960 264° West 287 330 8,700 -1,260 Descending FlightAware
07:25PM 34.0040 -117.8840 263° West 277 319 7,700 -1,260 Descending FlightAware
07:26PM 34.0000 -117.9260 263° West 278 320 7,000 -1,500 Descending FlightAware
07:26PM 33.9960 -117.9700 264° West 279 321 6,300 -1,260 Descending FlightAware
07:26PM 33.9940 -117.9950 264° West 268 308 6,100 -720 Descending FlightAware
07:27PM 33.9890 -118.0360 262° West 250 288 5,800 -600 Descending FlightAware
07:27PM 33.9880 -118.0510 265° West 244 281 5,700 -1,080 Descending FlightAware
07:27PM 33.9840 -118.0880 263° West 241 277 5,100 -1,320 Descending FlightAware
07:28PM 33.9810 -118.1130 262° West 240 276 4,700 -1,320 Descending FlightAware
07:28PM 33.9780 -118.1500 264° West 234 269 4,100 -1,260 Descending FlightAware
07:29PM 33.9740 -118.1840 262° West 229 264 3,600 -1,140 Descending FlightAware
07:29PM 33.9710 -118.2160 264° West 226 260 3,100 -1,200 Descending FlightAware
07:29PM 33.9680 -118.2480 264° West 220 253 2,600 -1,140 Descending FlightAware
07:30PM 33.9667 -118.2833 264° West 204 235 2,100 -1,020 Descending Southern California TRACON